Jacksonville, FL (32230)

7:22 AM EST on February 11, 2016 (GMT -0500)
Jax Beach | | Change Station
CLOSE
Current Station
Personal Weather Station
Location: Jacksonville Beach, FL
Elevation: 20 ft
Nearby Weather Stations
Active Advisory: Freeze Warning

Elev 20 ft 30.30 °N, 81.40 °W | Updated 2 minutes ago

Clear
Clear
32.0 °F
Feels Like 32 °F
N
0.0
Wind Variable Wind from West

Today
High -- | Low -- °F
--% Chance of Precip.
Yesterday
High -- | Low -- °F
Precip. -- in
Pressure 30.30 in
Visibility 10.0 miles
Clouds Clear
Windchill 32 °F
Dew Point 27 °F
Humidity 82%
Rainfall 0.00 in
Snow Depth Not available.
7:09 AM 6:10 PM
Waxing Crescent, 11% visible
METAR KNRB 111152Z 22005KT 10SM CLR 02/M04 A3030 RMK AO2 SLP261 T00171039 10061 20017 51017 $
Pressure 30.30 in
Visibility 10.0 miles
Clouds Clear
Windchill 32 °F
Dew Point 27 °F
Humidity 82%
Rainfall 0.00 in
Snow Depth Not available.
7:09 AM 6:10 PM
Waxing Crescent, 11% visible
METAR KNRB 111152Z 22005KT 10SM CLR 02/M04 A3030 RMK AO2 SLP261 T00171039 10061 20017 51017 $

10-Day Weather Forecast

Almanac

Astronomy

Feb. 11, 2016 Rise Set
Actual Time
Civil Twilight
Nautical Twilight
Astronomical Twilight
Moon
Length of Visible Light
Length of Day
Tomorrow will be .
, % of the Moon is Illuminated

Today's Extremes

State Highs State Lows

Community

WunderPhotos

Upload Photos

1,892,036 photos uploaded!

WunderBlog® & News

Nearby

Air Quality

  Air Quality AQ Index Pollutant
Not available.

Snow Depth

Station Depth Elevation

Earthquake Activity

City Distance Mag. Time & Date
Minimum magnitude displayed is 2.5.

Coastal Water Temperatures

Place Temperature

Stations

Nearby Weather Stations

Station Location Temp. Windchill Dew Point Humidity Wind Precip. Elev Updated Type
                   

Watches & Warnings

Freeze Warning
Issued: 3:06 AM EST Feb. 11, 2016 – National Weather Service

... Freeze warning remains in effect until 9 am EST this morning...

* temperatures... upper 20s to lower 30s.

Precautionary/preparedness actions...

A freeze warning means sub-freezing temperatures are imminent or
expected for at least 2 hours. Appropriate action should be
taken to ensure tender vegetation and outdoor pets have adequate
protection from the cold temperatures. Young children... the
elderly and the homeless are especially vulnerable to the cold.
Take measures to protect them.



Jds